sensor_id;sensor_type;location;lat;lon;timestamp;pressure;altitude;pressure_sealevel;temperature;humidity
19827;BME280;10074;52.018;4.726;2023-02-04T00:04:23;46475.91;;;-144.79;100.00
19827;BME280;10074;52.018;4.726;2023-02-04T00:09:23;46471.91;;;-144.79;100.00
19827;BME280;10074;52.018;4.726;2023-02-04T00:14:24;46475.91;;;-144.79;100.00
19827;BME280;10074;52.018;4.726;2023-02-04T00:19:24;46471.91;;;-144.79;100.00
19827;BME280;10074;52.018;4.726;2023-02-04T00:24:24;46473.91;;;-144.79;100.00
19827;BME280;10074;52.018;4.726;2023-02-04T00:29:26;46477.91;;;-144.79;100.00
19827;BME280;10074;52.018;4.726;2023-02-04T00:34:26;46471.91;;;-144.79;100.00
19827;BME280;10074;52.018;4.726;2023-02-04T00:39:26;46473.91;;;-144.79;100.00
19827;BME280;10074;52.018;4.726;2023-02-04T00:44:27;46475.91;;;-144.79;100.00
19827;BME280;10074;52.018;4.726;2023-02-04T00:49:27;46473.91;;;-144.79;100.00
19827;BME280;10074;52.018;4.726;2023-02-04T00:54:28;46479.91;;;-144.79;100.00
19827;BME280;10074;52.018;4.726;2023-02-04T00:59:28;46475.91;;;-144.79;100.00
19827;BME280;10074;52.018;4.726;2023-02-04T01:04:29;46471.91;;;-144.79;100.00
19827;BME280;10074;52.018;4.726;2023-02-04T01:09:29;46471.91;;;-144.79;100.00
19827;BME280;10074;52.018;4.726;2023-02-04T01:14:30;46471.91;;;-144.79;100.00
19827;BME280;10074;52.018;4.726;2023-02-04T01:19:30;46475.91;;;-144.79;100.00
19827;BME280;10074;52.018;4.726;2023-02-04T01:24:30;46475.91;;;-144.79;100.00
19827;BME280;10074;52.018;4.726;2023-02-04T01:29:31;46473.91;;;-144.79;100.00
19827;BME280;10074;52.018;4.726;2023-02-04T01:34:31;46475.91;;;-144.79;100.00
19827;BME280;10074;52.018;4.726;2023-02-04T01:39:32;46475.91;;;-144.79;100.00
19827;BME280;10074;52.018;4.726;2023-02-04T01:44:33;46469.88;;;-144.79;100.00
19827;BME280;10074;52.018;4.726;2023-02-04T01:49:33;46471.91;;;-144.79;100.00
19827;BME280;10074;52.018;4.726;2023-02-04T01:54:34;46475.91;;;-144.79;100.00
19827;BME280;10074;52.018;4.726;2023-02-04T01:59:34;46473.91;;;-144.79;100.00
19827;BME280;10074;52.018;4.726;2023-02-04T02:04:34;46469.88;;;-144.79;100.00
19827;BME280;10074;52.018;4.726;2023-02-04T02:09:35;46473.91;;;-144.79;100.00
19827;BME280;10074;52.018;4.726;2023-02-04T02:14:36;46475.91;;;-144.79;100.00
19827;BME280;10074;52.018;4.726;2023-02-04T02:19:37;46477.91;;;-144.79;100.00
19827;BME280;10074;52.018;4.726;2023-02-04T02:24:38;46473.91;;;-144.79;100.00
19827;BME280;10074;52.018;4.726;2023-02-04T02:29:40;46477.91;;;-144.79;100.00
19827;BME280;10074;52.018;4.726;2023-02-04T02:34:42;46477.91;;;-144.79;100.00
19827;BME280;10074;52.018;4.726;2023-02-04T02:39:44;46479.91;;;-144.79;100.00
19827;BME280;10074;52.018;4.726;2023-02-04T02:44:45;46471.91;;;-144.79;100.00
19827;BME280;10074;52.018;4.726;2023-02-04T02:49:49;46473.91;;;-144.79;100.00
19827;BME280;10074;52.018;4.726;2023-02-04T02:54:50;46475.91;;;-144.79;100.00
19827;BME280;10074;52.018;4.726;2023-02-04T02:59:51;46475.91;;;-144.79;100.00
19827;BME280;10074;52.018;4.726;2023-02-04T03:04:55;46477.91;;;-144.79;100.00
19827;BME280;10074;52.018;4.726;2023-02-04T03:09:57;46477.91;;;-144.79;100.00
19827;BME280;10074;52.018;4.726;2023-02-04T03:14:57;46469.88;;;-144.79;100.00
19827;BME280;10074;52.018;4.726;2023-02-04T03:19:58;46473.91;;;-144.79;100.00
19827;BME280;10074;52.018;4.726;2023-02-04T03:24:59;46475.91;;;-144.79;100.00
19827;BME280;10074;52.018;4.726;2023-02-04T03:29:59;46469.88;;;-144.79;100.00
19827;BME280;10074;52.018;4.726;2023-02-04T03:35:00;46473.91;;;-144.79;100.00
19827;BME280;10074;52.018;4.726;2023-02-04T03:40:00;46469.88;;;-144.79;100.00
19827;BME280;10074;52.018;4.726;2023-02-04T03:45:01;46471.91;;;-144.79;100.00
19827;BME280;10074;52.018;4.726;2023-02-04T03:50:01;46475.91;;;-144.79;100.00
19827;BME280;10074;52.018;4.726;2023-02-04T03:55:02;46475.91;;;-144.79;100.00
19827;BME280;10074;52.018;4.726;2023-02-04T04:00:02;46477.91;;;-144.79;100.00
19827;BME280;10074;52.018;4.726;2023-02-04T04:05:03;46475.91;;;-144.79;100.00
19827;BME280;10074;52.018;4.726;2023-02-04T04:10:03;46471.91;;;-144.79;100.00
19827;BME280;10074;52.018;4.726;2023-02-04T04:15:04;46471.91;;;-144.79;100.00
19827;BME280;10074;52.018;4.726;2023-02-04T04:20:05;46473.91;;;-144.79;100.00
19827;BME280;10074;52.018;4.726;2023-02-04T04:25:06;46475.91;;;-144.79;100.00
19827;BME280;10074;52.018;4.726;2023-02-04T04:30:07;46477.91;;;-144.79;100.00
19827;BME280;10074;52.018;4.726;2023-02-04T04:35:07;46471.91;;;-144.79;100.00
19827;BME280;10074;52.018;4.726;2023-02-04T04:40:10;46473.91;;;-144.79;100.00
19827;BME280;10074;52.018;4.726;2023-02-04T04:45:11;46475.91;;;-144.79;100.00
19827;BME280;10074;52.018;4.726;2023-02-04T04:50:12;46471.91;;;-144.79;100.00
19827;BME280;10074;52.018;4.726;2023-02-04T04:55:12;46475.91;;;-144.79;100.00
19827;BME280;10074;52.018;4.726;2023-02-04T05:00:18;46471.91;;;-144.79;100.00
19827;BME280;10074;52.018;4.726;2023-02-04T05:05:19;46473.91;;;-144.79;100.00
19827;BME280;10074;52.018;4.726;2023-02-04T05:10:20;46473.91;;;-144.79;100.00
19827;BME280;10074;52.018;4.726;2023-02-04T05:15:20;46481.91;;;-144.79;100.00
19827;BME280;10074;52.018;4.726;2023-02-04T05:20:21;46469.88;;;-144.79;100.00
19827;BME280;10074;52.018;4.726;2023-02-04T05:25:22;46471.91;;;-144.79;100.00
19827;BME280;10074;52.018;4.726;2023-02-04T05:30:22;46475.91;;;-144.79;100.00
19827;BME280;10074;52.018;4.726;2023-02-04T05:35:23;46471.91;;;-144.79;100.00
19827;BME280;10074;52.018;4.726;2023-02-04T05:40:24;46471.91;;;-144.79;100.00
19827;BME280;10074;52.018;4.726;2023-02-04T05:45:24;46473.91;;;-144.79;100.00
19827;BME280;10074;52.018;4.726;2023-02-04T05:50:24;46473.91;;;-144.79;100.00
19827;BME280;10074;52.018;4.726;2023-02-04T05:55:25;46469.88;;;-144.79;100.00
19827;BME280;10074;52.018;4.726;2023-02-04T06:00:25;46475.91;;;-144.79;100.00
19827;BME280;10074;52.018;4.726;2023-02-04T06:05:25;46471.91;;;-144.79;100.00
19827;BME280;10074;52.018;4.726;2023-02-04T06:10:26;46475.91;;;-144.79;100.00
19827;BME280;10074;52.018;4.726;2023-02-04T06:15:26;46477.91;;;-144.79;100.00
19827;BME280;10074;52.018;4.726;2023-02-04T06:20:27;46471.91;;;-144.79;100.00
19827;BME280;10074;52.018;4.726;2023-02-04T06:25:27;46475.91;;;-144.79;100.00
19827;BME280;10074;52.018;4.726;2023-02-04T06:30:27;46467.88;;;-144.79;100.00
19827;BME280;10074;52.018;4.726;2023-02-04T06:35:28;46465.88;;;-144.79;100.00
19827;BME280;10074;52.018;4.726;2023-02-04T06:40:28;46453.84;;;-144.79;100.00
19827;BME280;10074;52.018;4.726;2023-02-04T06:45:28;46445.84;;;-144.79;100.00
19827;BME280;10074;52.018;4.726;2023-02-04T06:50:29;46439.81;;;-144.79;100.00
19827;BME280;10074;52.018;4.726;2023-02-04T06:55:29;46435.81;;;-144.79;100.00
19827;BME280;10074;52.018;4.726;2023-02-04T07:00:30;46449.84;;;-144.79;100.00
19827;BME280;10074;52.018;4.726;2023-02-04T07:05:30;46455.84;;;-144.79;100.00
19827;BME280;10074;52.018;4.726;2023-02-04T07:10:31;46453.84;;;-144.79;100.00
19827;BME280;10074;52.018;4.726;2023-02-04T07:15:32;46461.88;;;-144.79;100.00
19827;BME280;10074;52.018;4.726;2023-02-04T07:20:32;46459.88;;;-144.79;100.00
19827;BME280;10074;52.018;4.726;2023-02-04T07:25:32;46463.88;;;-144.79;100.00
19827;BME280;10074;52.018;4.726;2023-02-04T07:30:33;46467.88;;;-144.79;100.00
19827;BME280;10074;52.018;4.726;2023-02-04T07:35:33;46467.88;;;-144.79;100.00
19827;BME280;10074;52.018;4.726;2023-02-04T07:40:34;46467.88;;;-144.79;100.00
19827;BME280;10074;52.018;4.726;2023-02-04T07:45:34;46473.91;;;-144.79;100.00
19827;BME280;10074;52.018;4.726;2023-02-04T07:50:35;46471.91;;;-144.79;100.00
19827;BME280;10074;52.018;4.726;2023-02-04T07:55:35;46471.91;;;-144.79;100.00
19827;BME280;10074;52.018;4.726;2023-02-04T08:00:35;46475.91;;;-144.79;100.00
19827;BME280;10074;52.018;4.726;2023-02-04T08:05:36;46475.91;;;-144.79;100.00
19827;BME280;10074;52.018;4.726;2023-02-04T08:10:36;46477.91;;;-144.79;100.00
19827;BME280;10074;52.018;4.726;2023-02-04T08:15:36;46473.91;;;-144.79;100.00
19827;BME280;10074;52.018;4.726;2023-02-04T08:20:37;46475.91;;;-144.79;100.00
19827;BME280;10074;52.018;4.726;2023-02-04T08:25:37;46473.91;;;-144.79;100.00
19827;BME280;10074;52.018;4.726;2023-02-04T08:30:39;46471.91;;;-144.79;100.00
19827;BME280;10074;52.018;4.726;2023-02-04T08:35:39;46475.91;;;-144.79;100.00
19827;BME280;10074;52.018;4.726;2023-02-04T08:40:39;46473.91;;;-144.79;100.00
19827;BME280;10074;52.018;4.726;2023-02-04T08:45:40;46477.91;;;-144.79;100.00
19827;BME280;10074;52.018;4.726;2023-02-04T08:50:40;46471.91;;;-144.79;100.00
19827;BME280;10074;52.018;4.726;2023-02-04T08:55:40;46473.91;;;-144.79;100.00
19827;BME280;10074;52.018;4.726;2023-02-04T09:00:41;46469.88;;;-144.79;100.00
19827;BME280;10074;52.018;4.726;2023-02-04T09:05:41;46473.91;;;-144.79;100.00
19827;BME280;10074;52.018;4.726;2023-02-04T09:10:41;46479.91;;;-144.79;100.00
19827;BME280;10074;52.018;4.726;2023-02-04T09:15:42;46473.91;;;-144.79;100.00
19827;BME280;10074;52.018;4.726;2023-02-04T09:20:43;46473.91;;;-144.79;100.00
19827;BME280;10074;52.018;4.726;2023-02-04T09:25:44;46475.91;;;-144.79;100.00
19827;BME280;10074;52.018;4.726;2023-02-04T09:30:46;46473.91;;;-144.79;100.00
19827;BME280;10074;52.018;4.726;2023-02-04T09:35:46;46473.91;;;-144.79;100.00
19827;BME280;10074;52.018;4.726;2023-02-04T09:40:50;46471.91;;;-144.79;100.00
19827;BME280;10074;52.018;4.726;2023-02-04T09:45:53;46473.91;;;-144.79;100.00
19827;BME280;10074;52.018;4.726;2023-02-04T09:51:03;46477.91;;;-144.79;100.00
19827;BME280;10074;52.018;4.726;2023-02-04T09:56:04;46471.91;;;-144.79;100.00
19827;BME280;10074;52.018;4.726;2023-02-04T10:01:13;46469.88;;;-144.79;100.00
19827;BME280;10074;52.018;4.726;2023-02-04T10:06:16;46471.91;;;-144.79;100.00
19827;BME280;10074;52.018;4.726;2023-02-04T10:11:19;46471.91;;;-144.79;100.00
19827;BME280;10074;52.018;4.726;2023-02-04T10:16:23;46475.91;;;-144.79;100.00
19827;BME280;10074;52.018;4.726;2023-02-04T10:21:30;46475.91;;;-144.79;100.00
19827;BME280;10074;52.018;4.726;2023-02-04T10:26:31;46475.91;;;-144.79;100.00
19827;BME280;10074;52.018;4.726;2023-02-04T10:31:38;46469.88;;;-144.79;100.00
19827;BME280;10074;52.018;4.726;2023-02-04T10:36:40;46473.91;;;-144.79;100.00
19827;BME280;10074;52.018;4.726;2023-02-04T10:41:55;46473.91;;;-144.79;100.00
19827;BME280;10074;52.018;4.726;2023-02-04T10:47:00;46473.91;;;-144.79;100.00
19827;BME280;10074;52.018;4.726;2023-02-04T10:52:05;46475.91;;;-144.79;100.00
19827;BME280;10074;52.018;4.726;2023-02-04T10:57:22;46469.88;;;-144.79;100.00
19827;BME280;10074;52.018;4.726;2023-02-04T11:07:29;46475.91;;;-144.79;100.00
19827;BME280;10074;52.018;4.726;2023-02-04T11:17:40;46471.91;;;-144.79;100.00
19827;BME280;10074;52.018;4.726;2023-02-04T11:22:43;46471.91;;;-144.79;100.00
19827;BME280;10074;52.018;4.726;2023-02-04T11:27:45;46467.88;;;-144.79;100.00
19827;BME280;10074;52.018;4.726;2023-02-04T11:32:59;46471.91;;;-144.79;100.00
19827;BME280;10074;52.018;4.726;2023-02-04T11:38:00;46463.88;;;-144.79;100.00
19827;BME280;10074;52.018;4.726;2023-02-04T11:43:07;46465.88;;;-144.79;100.00
19827;BME280;10074;52.018;4.726;2023-02-04T11:48:12;46463.88;;;-144.79;100.00
19827;BME280;10074;52.018;4.726;2023-02-04T11:53:13;46465.88;;;-144.79;100.00
19827;BME280;10074;52.018;4.726;2023-02-04T11:58:17;46471.91;;;-144.79;100.00
19827;BME280;10074;52.018;4.726;2023-02-04T12:03:29;46467.88;;;-144.79;100.00
19827;BME280;10074;52.018;4.726;2023-02-04T12:08:35;46467.88;;;-144.79;100.00
19827;BME280;10074;52.018;4.726;2023-02-04T12:13:49;46475.91;;;-144.79;100.00
19827;BME280;10074;52.018;4.726;2023-02-04T12:18:51;46471.91;;;-144.79;100.00
19827;BME280;10074;52.018;4.726;2023-02-04T12:23:51;46471.91;;;-144.79;100.00
19827;BME280;10074;52.018;4.726;2023-02-04T12:28:51;46471.91;;;-144.79;100.00
19827;BME280;10074;52.018;4.726;2023-02-04T12:33:52;46469.88;;;-144.79;100.00
19827;BME280;10074;52.018;4.726;2023-02-04T12:38:53;46471.91;;;-144.79;100.00
19827;BME280;10074;52.018;4.726;2023-02-04T12:43:53;46469.88;;;-144.79;100.00
19827;BME280;10074;52.018;4.726;2023-02-04T12:48:54;46469.88;;;-144.79;100.00
19827;BME280;10074;52.018;4.726;2023-02-04T12:53:55;46471.91;;;-144.79;100.00
19827;BME280;10074;52.018;4.726;2023-02-04T12:58:55;46473.91;;;-144.79;100.00
19827;BME280;10074;52.018;4.726;2023-02-04T13:03:55;46471.91;;;-144.79;100.00
19827;BME280;10074;52.018;4.726;2023-02-04T13:08:57;46471.91;;;-144.79;100.00
19827;BME280;10074;52.018;4.726;2023-02-04T13:13:57;46473.91;;;-144.79;100.00
19827;BME280;10074;52.018;4.726;2023-02-04T13:18:57;46475.91;;;-144.79;100.00
19827;BME280;10074;52.018;4.726;2023-02-04T13:23:58;46475.91;;;-144.79;100.00
19827;BME280;10074;52.018;4.726;2023-02-04T13:28:59;46471.91;;;-144.79;100.00
19827;BME280;10074;52.018;4.726;2023-02-04T13:33:59;46471.91;;;-144.79;100.00
19827;BME280;10074;52.018;4.726;2023-02-04T13:39:00;46473.91;;;-144.79;100.00
19827;BME280;10074;52.018;4.726;2023-02-04T13:44:01;46475.91;;;-144.79;100.00
19827;BME280;10074;52.018;4.726;2023-02-04T13:49:01;46471.91;;;-144.79;100.00
19827;BME280;10074;52.018;4.726;2023-02-04T13:54:01;46473.91;;;-144.79;100.00
19827;BME280;10074;52.018;4.726;2023-02-04T13:59:02;46471.91;;;-144.79;100.00
19827;BME280;10074;52.018;4.726;2023-02-04T14:04:02;46475.91;;;-144.79;100.00
19827;BME280;10074;52.018;4.726;2023-02-04T14:09:03;46477.91;;;-144.79;100.00
19827;BME280;10074;52.018;4.726;2023-02-04T14:14:03;46473.91;;;-144.79;100.00
19827;BME280;10074;52.018;4.726;2023-02-04T14:19:05;46475.91;;;-144.79;100.00
19827;BME280;10074;52.018;4.726;2023-02-04T14:24:06;46477.91;;;-144.79;100.00
19827;BME280;10074;52.018;4.726;2023-02-04T14:29:06;46475.91;;;-144.79;100.00
19827;BME280;10074;52.018;4.726;2023-02-04T14:34:07;46477.91;;;-144.79;100.00
19827;BME280;10074;52.018;4.726;2023-02-04T14:39:07;46475.91;;;-144.79;100.00
19827;BME280;10074;52.018;4.726;2023-02-04T14:44:08;46475.91;;;-144.79;100.00
19827;BME280;10074;52.018;4.726;2023-02-04T14:49:09;46473.91;;;-144.79;100.00
19827;BME280;10074;52.018;4.726;2023-02-04T14:54:09;46473.91;;;-144.79;100.00
19827;BME280;10074;52.018;4.726;2023-02-04T14:59:10;46473.91;;;-144.79;100.00
19827;BME280;10074;52.018;4.726;2023-02-04T15:04:11;46471.91;;;-144.79;100.00
19827;BME280;10074;52.018;4.726;2023-02-04T15:09:11;46475.91;;;-144.79;100.00
19827;BME280;10074;52.018;4.726;2023-02-04T15:14:11;46469.88;;;-144.79;100.00
19827;BME280;10074;52.018;4.726;2023-02-04T15:19:13;46471.91;;;-144.79;100.00
19827;BME280;10074;52.018;4.726;2023-02-04T15:24:13;46475.91;;;-144.79;100.00
19827;BME280;10074;52.018;4.726;2023-02-04T15:29:16;46475.91;;;-144.79;100.00
19827;BME280;10074;52.018;4.726;2023-02-04T15:34:17;46471.91;;;-144.79;100.00
19827;BME280;10074;52.018;4.726;2023-02-04T15:39:17;46475.91;;;-144.79;100.00
19827;BME280;10074;52.018;4.726;2023-02-04T15:44:17;46469.88;;;-144.79;100.00
19827;BME280;10074;52.018;4.726;2023-02-04T15:49:21;46477.91;;;-144.79;100.00
19827;BME280;10074;52.018;4.726;2023-02-04T15:54:21;46475.91;;;-144.79;100.00
19827;BME280;10074;52.018;4.726;2023-02-04T15:59:22;46475.91;;;-144.79;100.00
19827;BME280;10074;52.018;4.726;2023-02-04T16:04:22;46471.91;;;-144.79;100.00
19827;BME280;10074;52.018;4.726;2023-02-04T16:09:23;46477.91;;;-144.79;100.00
19827;BME280;10074;52.018;4.726;2023-02-04T16:14:23;46479.91;;;-144.79;100.00
19827;BME280;10074;52.018;4.726;2023-02-04T16:19:25;46473.91;;;-144.79;100.00
19827;BME280;10074;52.018;4.726;2023-02-04T16:24:25;46471.91;;;-144.79;100.00
19827;BME280;10074;52.018;4.726;2023-02-04T16:29:26;46471.91;;;-144.79;100.00
19827;BME280;10074;52.018;4.726;2023-02-04T16:34:26;46475.91;;;-144.79;100.00
19827;BME280;10074;52.018;4.726;2023-02-04T16:39:28;46477.91;;;-144.79;100.00
19827;BME280;10074;52.018;4.726;2023-02-04T16:44:28;46471.91;;;-144.79;100.00
19827;BME280;10074;52.018;4.726;2023-02-04T16:49:30;46475.91;;;-144.79;100.00
19827;BME280;10074;52.018;4.726;2023-02-04T16:54:31;46473.91;;;-144.79;100.00
19827;BME280;10074;52.018;4.726;2023-02-04T16:59:32;46477.91;;;-144.79;100.00
19827;BME280;10074;52.018;4.726;2023-02-04T17:04:32;46475.91;;;-144.79;100.00
19827;BME280;10074;52.018;4.726;2023-02-04T17:09:33;46473.91;;;-144.79;100.00
19827;BME280;10074;52.018;4.726;2023-02-04T17:14:34;46475.91;;;-144.79;100.00
19827;BME280;10074;52.018;4.726;2023-02-04T17:19:34;46479.91;;;-144.79;100.00
19827;BME280;10074;52.018;4.726;2023-02-04T17:24:35;46479.91;;;-144.79;100.00
19827;BME280;10074;52.018;4.726;2023-02-04T17:29:41;46475.91;;;-144.79;100.00
19827;BME280;10074;52.018;4.726;2023-02-04T17:34:42;46471.91;;;-144.79;100.00
19827;BME280;10074;52.018;4.726;2023-02-04T17:39:42;46477.91;;;-144.79;100.00
19827;BME280;10074;52.018;4.726;2023-02-04T17:44:43;46481.91;;;-144.79;100.00
19827;BME280;10074;52.018;4.726;2023-02-04T17:49:43;46475.91;;;-144.79;100.00
19827;BME280;10074;52.018;4.726;2023-02-04T17:54:43;46467.88;;;-144.79;100.00
19827;BME280;10074;52.018;4.726;2023-02-04T17:59:44;46475.91;;;-144.79;100.00
19827;BME280;10074;52.018;4.726;2023-02-04T18:04:45;46479.91;;;-144.79;100.00
19827;BME280;10074;52.018;4.726;2023-02-04T18:09:46;46479.91;;;-144.79;100.00
19827;BME280;10074;52.018;4.726;2023-02-04T18:14:46;46475.91;;;-144.79;100.00
19827;BME280;10074;52.018;4.726;2023-02-04T18:19:47;46475.91;;;-144.79;100.00
19827;BME280;10074;52.018;4.726;2023-02-04T18:24:48;46477.91;;;-144.79;100.00
19827;BME280;10074;52.018;4.726;2023-02-04T18:29:52;46473.91;;;-144.79;100.00
19827;BME280;10074;52.018;4.726;2023-02-04T18:34:54;46477.91;;;-144.79;100.00
19827;BME280;10074;52.018;4.726;2023-02-04T18:50:29;46475.91;;;-144.79;100.00
19827;BME280;10074;52.018;4.726;2023-02-04T18:55:38;46475.91;;;-144.79;100.00
19827;BME280;10074;52.018;4.726;2023-02-04T19:00:39;46473.91;;;-144.79;100.00
19827;BME280;10074;52.018;4.726;2023-02-04T19:05:45;46471.91;;;-144.79;100.00
19827;BME280;10074;52.018;4.726;2023-02-04T19:10:49;46473.91;;;-144.79;100.00
19827;BME280;10074;52.018;4.726;2023-02-04T19:15:56;46473.91;;;-144.79;100.00
19827;BME280;10074;52.018;4.726;2023-02-04T19:26:34;46471.91;;;-144.79;100.00
19827;BME280;10074;52.018;4.726;2023-02-04T19:31:40;46473.91;;;-144.79;100.00
19827;BME280;10074;52.018;4.726;2023-02-04T19:36:40;46471.91;;;-144.79;100.00
19827;BME280;10074;52.018;4.726;2023-02-04T19:41:47;46473.91;;;-144.79;100.00
19827;BME280;10074;52.018;4.726;2023-02-04T19:46:48;46471.91;;;-144.79;100.00
19827;BME280;10074;52.018;4.726;2023-02-04T19:51:53;46475.91;;;-144.79;100.00
19827;BME280;10074;52.018;4.726;2023-02-04T19:56:54;46469.88;;;-144.79;100.00
19827;BME280;10074;52.018;4.726;2023-02-04T20:07:26;46479.91;;;-144.79;100.00
19827;BME280;10074;52.018;4.726;2023-02-04T20:12:28;46471.91;;;-144.79;100.00
19827;BME280;10074;52.018;4.726;2023-02-04T20:17:39;46475.91;;;-144.79;100.00
19827;BME280;10074;52.018;4.726;2023-02-04T20:22:45;46479.91;;;-144.79;100.00
19827;BME280;10074;52.018;4.726;2023-02-04T20:27:56;46477.91;;;-144.79;100.00
19827;BME280;10074;52.018;4.726;2023-02-04T20:38:58;46475.91;;;-144.79;100.00
19827;BME280;10074;52.018;4.726;2023-02-04T20:49:39;46475.91;;;-144.79;100.00
19827;BME280;10074;52.018;4.726;2023-02-04T20:54:40;46475.91;;;-144.79;100.00
19827;BME280;10074;52.018;4.726;2023-02-04T20:59:40;46475.91;;;-144.79;100.00
19827;BME280;10074;52.018;4.726;2023-02-04T21:04:41;46473.91;;;-144.79;100.00
19827;BME280;10074;52.018;4.726;2023-02-04T21:09:46;46475.91;;;-144.79;100.00
19827;BME280;10074;52.018;4.726;2023-02-04T21:14:47;46471.91;;;-144.79;100.00
19827;BME280;10074;52.018;4.726;2023-02-04T21:19:48;46473.91;;;-144.79;100.00
19827;BME280;10074;52.018;4.726;2023-02-04T21:24:48;46475.91;;;-144.79;100.00
19827;BME280;10074;52.018;4.726;2023-02-04T21:29:49;46473.91;;;-144.79;100.00
19827;BME280;10074;52.018;4.726;2023-02-04T21:34:49;46467.88;;;-144.79;100.00
19827;BME280;10074;52.018;4.726;2023-02-04T21:39:50;46477.91;;;-144.79;100.00
19827;BME280;10074;52.018;4.726;2023-02-04T21:44:50;46471.91;;;-144.79;100.00
19827;BME280;10074;52.018;4.726;2023-02-04T21:49:50;46473.91;;;-144.79;100.00
19827;BME280;10074;52.018;4.726;2023-02-04T21:54:51;46475.91;;;-144.79;100.00
19827;BME280;10074;52.018;4.726;2023-02-04T21:59:51;46475.91;;;-144.79;100.00
19827;BME280;10074;52.018;4.726;2023-02-04T22:04:53;46477.91;;;-144.79;100.00
19827;BME280;10074;52.018;4.726;2023-02-04T22:09:54;46473.91;;;-144.79;100.00
19827;BME280;10074;52.018;4.726;2023-02-04T22:14:54;46473.91;;;-144.79;100.00
19827;BME280;10074;52.018;4.726;2023-02-04T22:19:55;46475.91;;;-144.79;100.00
19827;BME280;10074;52.018;4.726;2023-02-04T22:24:55;46477.91;;;-144.79;100.00
19827;BME280;10074;52.018;4.726;2023-02-04T22:29:56;46479.91;;;-144.79;100.00
19827;BME280;10074;52.018;4.726;2023-02-04T22:34:56;46473.91;;;-144.79;100.00
19827;BME280;10074;52.018;4.726;2023-02-04T22:39:57;46469.88;;;-144.79;100.00
19827;BME280;10074;52.018;4.726;2023-02-04T22:44:57;46473.91;;;-144.79;100.00
19827;BME280;10074;52.018;4.726;2023-02-04T22:49:58;46479.91;;;-144.79;100.00
19827;BME280;10074;52.018;4.726;2023-02-04T22:54:58;46475.91;;;-144.79;100.00
19827;BME280;10074;52.018;4.726;2023-02-04T22:59:58;46477.91;;;-144.79;100.00
19827;BME280;10074;52.018;4.726;2023-02-04T23:04:59;46473.91;;;-144.79;100.00
19827;BME280;10074;52.018;4.726;2023-02-04T23:09:59;46477.91;;;-144.79;100.00
19827;BME280;10074;52.018;4.726;2023-02-04T23:15:00;46477.91;;;-144.79;100.00
19827;BME280;10074;52.018;4.726;2023-02-04T23:20:00;46471.91;;;-144.79;100.00
19827;BME280;10074;52.018;4.726;2023-02-04T23:25:01;46471.91;;;-144.79;100.00
19827;BME280;10074;52.018;4.726;2023-02-04T23:30:02;46477.91;;;-144.79;100.00
19827;BME280;10074;52.018;4.726;2023-02-04T23:35:05;46475.91;;;-144.79;100.00
19827;BME280;10074;52.018;4.726;2023-02-04T23:40:06;46473.91;;;-144.79;100.00
19827;BME280;10074;52.018;4.726;2023-02-04T23:45:07;46471.91;;;-144.79;100.00
19827;BME280;10074;52.018;4.726;2023-02-04T23:50:08;46473.91;;;-144.79;100.00
19827;BME280;10074;52.018;4.726;2023-02-04T23:55:09;46471.91;;;-144.79;100.00
